createdAt,value
2022-11-09T00:00:06.631Z,82.26
2022-11-09T00:02:32.966Z,81.37
2022-11-09T00:04:59.356Z,80.79
2022-11-09T00:07:25.751Z,79.65
2022-11-09T00:09:52.233Z,79.13
2022-11-09T00:12:18.703Z,79.45
2022-11-09T00:14:45.232Z,79.88
2022-11-09T00:17:11.831Z,79.34
2022-11-09T00:19:38.283Z,79.04
2022-11-09T00:22:04.745Z,79.19
2022-11-09T00:24:31.208Z,79.09
2022-11-09T00:26:57.616Z,79.21
2022-11-09T00:29:24.010Z,78.74
2022-11-09T00:31:50.510Z,79.21
2022-11-09T00:34:16.997Z,79.17
2022-11-09T00:36:43.452Z,78.59
2022-11-09T00:39:09.911Z,78.89
2022-11-09T00:41:36.377Z,79.02
2022-11-09T00:44:03.031Z,78.95
2022-11-09T00:46:29.686Z,78.58
2022-11-09T00:48:56.339Z,77.78
2022-11-09T00:51:22.891Z,77.54
2022-11-09T00:53:53.703Z,77.44
2022-11-09T00:56:21.478Z,77.65
2022-11-09T00:58:47.975Z,77.48
2022-11-09T01:01:17.126Z,78.03
2022-11-09T01:03:45.385Z,77.96
2022-11-09T01:06:17.530Z,78.17
2022-11-09T01:08:44.350Z,78.59
2022-11-09T01:11:11.540Z,79.26
2022-11-09T01:13:39.199Z,79.49
2022-11-09T01:16:13.748Z,79.70
2022-11-09T01:18:40.643Z,79.79
2022-11-09T01:21:09.693Z,80.06
2022-11-09T01:23:37.228Z,79.52
2022-11-09T01:26:10.134Z,79.52
2022-11-09T01:28:37.368Z,79.95
2022-11-09T01:31:07.283Z,79.50
2022-11-09T01:33:34.011Z,79.09
2022-11-09T01:36:04.560Z,79.32
2022-11-09T01:38:31.708Z,79.31
2022-11-09T01:40:58.153Z,79.47
2022-11-09T01:43:25.552Z,80.04
2022-11-09T01:46:01.630Z,80.51
2022-11-09T01:48:43.966Z,80.54
2022-11-09T01:51:17.266Z,81.30
2022-11-09T01:53:47.788Z,80.39
2022-11-09T01:56:17.845Z,79.83
2022-11-09T01:58:50.429Z,79.60
2022-11-09T02:01:17.680Z,79.56
2022-11-09T02:03:55.851Z,80.40
2022-11-09T02:06:27.280Z,81.09
2022-11-09T02:08:59.963Z,82.00
2022-11-09T02:11:27.339Z,81.87
2022-11-09T02:14:00.542Z,82.40
2022-11-09T02:16:28.696Z,82.76
2022-11-09T02:18:58.069Z,82.85
2022-11-09T02:21:28.075Z,83.75
2022-11-09T02:23:54.684Z,84.94
2022-11-09T02:26:30.257Z,84.22
2022-11-09T02:28:59.556Z,84.50
2022-11-09T02:31:32.179Z,84.95
2022-11-09T02:34:19.752Z,86.28
2022-11-09T02:36:47.188Z,87.52
2022-11-09T02:39:20.212Z,91.60
2022-11-09T02:42:10.734Z,97.32
2022-11-09T02:44:45.546Z,98.68
2022-11-09T02:47:11.957Z,100.00
2022-11-09T02:49:38.505Z,100.00
2022-11-09T02:52:05.253Z,100.00
2022-11-09T02:54:31.751Z,100.00
2022-11-09T02:56:58.999Z,100.00
2022-11-09T02:59:26.375Z,100.00
2022-11-09T03:01:52.903Z,100.00
2022-11-09T03:04:20.212Z,100.00
2022-11-09T03:06:46.914Z,100.00
2022-11-09T03:09:16.221Z,100.00
2022-11-09T03:11:43.204Z,100.00
2022-11-09T03:14:12.388Z,100.00
2022-11-09T03:16:50.260Z,100.00
2022-11-09T03:19:17.388Z,100.00
2022-11-09T03:21:46.242Z,100.00
2022-11-09T03:24:12.751Z,100.00
2022-11-09T03:26:40.290Z,100.00
2022-11-09T03:29:06.794Z,100.00
2022-11-09T03:31:33.427Z,100.00
2022-11-09T03:34:03.626Z,100.00
2022-11-09T03:36:30.076Z,100.00
2022-11-09T03:38:56.600Z,100.00
2022-11-09T03:41:23.366Z,100.00
2022-11-09T03:43:49.878Z,100.00
2022-11-09T03:46:16.318Z,100.00
2022-11-09T03:48:42.798Z,100.00
2022-11-09T03:51:09.225Z,100.00
2022-11-09T03:53:35.664Z,100.00
2022-11-09T03:56:02.066Z,100.00
2022-11-09T03:58:28.475Z,100.00
2022-11-09T04:00:54.977Z,100.00
2022-11-09T04:03:21.725Z,100.00
2022-11-09T04:05:48.239Z,100.00
2022-11-09T04:08:14.753Z,100.00
2022-11-09T04:10:41.148Z,100.00
2022-11-09T04:13:07.556Z,100.00
2022-11-09T04:15:34.016Z,100.00
2022-11-09T04:18:02.277Z,100.00
2022-11-09T04:20:30.772Z,100.00
2022-11-09T04:22:59.861Z,100.00
2022-11-09T04:25:27.612Z,100.00
2022-11-09T04:27:56.088Z,100.00
2022-11-09T04:30:23.269Z,100.00
2022-11-09T04:32:49.899Z,100.00
2022-11-09T04:35:16.505Z,100.00
2022-11-09T04:37:43.007Z,100.00
2022-11-09T04:40:10.259Z,100.00
2022-11-09T04:42:36.760Z,100.00
2022-11-09T04:45:03.268Z,100.00
2022-11-09T04:47:29.721Z,100.00
2022-11-09T04:49:56.119Z,100.00
2022-11-09T04:52:22.501Z,100.00
2022-11-09T04:54:48.988Z,100.00
2022-11-09T04:57:15.376Z,100.00
2022-11-09T04:59:41.793Z,100.00
2022-11-09T05:02:08.305Z,100.00
2022-11-09T05:04:34.750Z,100.00
2022-11-09T05:07:01.196Z,100.00
2022-11-09T05:09:27.676Z,100.00
2022-11-09T05:11:54.119Z,100.00
2022-11-09T05:14:20.577Z,100.00
2022-11-09T05:16:47.012Z,100.00
2022-11-09T05:19:13.527Z,100.00
2022-11-09T05:21:40.054Z,100.00
2022-11-09T05:24:06.996Z,100.00
2022-11-09T05:26:36.252Z,100.00
2022-11-09T05:29:06.363Z,100.00
2022-11-09T05:31:33.640Z,100.00
2022-11-09T05:34:00.659Z,100.00
2022-11-09T05:36:28.408Z,100.00
2022-11-09T05:38:54.928Z,100.00
2022-11-09T05:41:21.446Z,100.00
2022-11-09T05:43:47.916Z,100.00
2022-11-09T05:46:15.679Z,100.00
2022-11-09T05:48:43.054Z,100.00
2022-11-09T05:51:11.422Z,100.00
2022-11-09T05:53:42.347Z,100.00
2022-11-09T05:56:12.920Z,100.00
2022-11-09T05:58:39.709Z,100.00
2022-11-09T06:01:08.545Z,100.00
2022-11-09T06:03:35.193Z,100.00
2022-11-09T06:06:08.052Z,100.00
2022-11-09T06:08:35.163Z,100.00
2022-11-09T06:11:07.372Z,100.00
2022-11-09T06:13:34.281Z,100.00
2022-11-09T06:16:02.907Z,100.00
2022-11-09T06:18:31.184Z,100.00
2022-11-09T06:21:01.265Z,100.00
2022-11-09T06:23:29.194Z,100.00
2022-11-09T06:26:07.119Z,100.00
2022-11-09T06:28:34.620Z,100.00
2022-11-09T06:31:02.655Z,100.00
2022-11-09T06:33:33.304Z,100.00
2022-11-09T06:36:00.103Z,100.00
2022-11-09T06:38:27.474Z,100.00
2022-11-09T06:40:55.731Z,100.00
2022-11-09T06:43:23.328Z,100.00
2022-11-09T06:45:50.646Z,100.00
2022-11-09T06:48:17.428Z,100.00
2022-11-09T06:50:44.096Z,100.00
2022-11-09T06:53:12.906Z,100.00
2022-11-09T06:55:40.830Z,100.00
2022-11-09T06:58:11.888Z,100.00
2022-11-09T07:00:38.606Z,100.00
2022-11-09T07:03:05.300Z,100.00
2022-11-09T07:05:31.824Z,100.00
2022-11-09T07:07:58.239Z,100.00
2022-11-09T07:10:24.900Z,100.00
2022-11-09T07:12:51.352Z,100.00
2022-11-09T07:15:18.508Z,100.00
2022-11-09T07:17:44.995Z,100.00
2022-11-09T07:20:11.758Z,100.00
2022-11-09T07:22:39.784Z,100.00
2022-11-09T07:25:11.538Z,100.00
2022-11-09T07:27:38.001Z,100.00
2022-11-09T07:30:04.939Z,100.00
2022-11-09T07:33:08.772Z,100.00
2022-11-09T07:35:26.614Z,100.00
2022-11-09T07:37:53.495Z,100.00
2022-11-09T07:40:20.635Z,100.00
2022-11-09T07:42:47.047Z,100.00
2022-11-09T07:45:13.479Z,100.00
2022-11-09T07:47:39.891Z,100.00
2022-11-09T07:50:06.769Z,100.00
2022-11-09T07:52:33.211Z,100.00
2022-11-09T07:54:59.620Z,100.00
2022-11-09T07:57:26.005Z,100.00
2022-11-09T07:59:53.464Z,100.00
2022-11-09T08:02:20.029Z,100.00
2022-11-09T08:04:46.494Z,100.00
2022-11-09T08:07:12.928Z,100.00
2022-11-09T08:09:39.527Z,100.00
2022-11-09T08:12:06.203Z,100.00
2022-11-09T08:14:33.232Z,100.00
2022-11-09T08:16:59.664Z,100.00
2022-11-09T08:19:26.078Z,100.00
2022-11-09T08:21:57.183Z,100.00
2022-11-09T08:24:23.908Z,100.00
2022-11-09T08:26:50.340Z,100.00
2022-11-09T08:29:16.907Z,100.00
2022-11-09T08:31:43.403Z,100.00
2022-11-09T08:34:14.880Z,100.00
2022-11-09T08:36:41.421Z,100.00
2022-11-09T08:39:08.286Z,100.00
2022-11-09T08:41:34.695Z,100.00
2022-11-09T08:44:01.155Z,100.00
2022-11-09T08:46:27.576Z,100.00
2022-11-09T08:48:54.085Z,100.00
2022-11-09T08:51:20.500Z,100.00
2022-11-09T08:53:46.993Z,100.00
2022-11-09T08:56:18.246Z,100.00
2022-11-09T08:58:45.659Z,100.00
2022-11-09T09:01:16.934Z,100.00
2022-11-09T09:03:43.697Z,100.00
2022-11-09T09:06:10.147Z,100.00
2022-11-09T09:08:36.629Z,100.00
2022-11-09T09:11:04.786Z,100.00
2022-11-09T09:13:31.960Z,100.00
2022-11-09T09:15:58.817Z,100.00
2022-11-09T09:18:25.261Z,100.00
2022-11-09T09:20:51.755Z,100.00
2022-11-09T09:23:18.228Z,100.00
2022-11-09T09:25:44.728Z,100.00
2022-11-09T09:28:11.263Z,100.00
2022-11-09T09:30:37.721Z,100.00
2022-11-09T09:33:04.214Z,100.00
2022-11-09T09:35:30.613Z,100.00
2022-11-09T09:37:58.122Z,100.00
2022-11-09T09:40:36.877Z,100.00
2022-11-09T09:43:03.551Z,100.00
2022-11-09T09:45:34.686Z,100.00
2022-11-09T09:48:38.463Z,100.00
2022-11-09T09:51:18.725Z,100.00
2022-11-09T09:53:49.428Z,100.00
2022-11-09T09:56:26.754Z,100.00
2022-11-09T09:59:15.119Z,100.00
2022-11-09T10:01:44.193Z,100.00
2022-11-09T10:04:19.496Z,100.00
2022-11-09T10:07:01.447Z,100.00
2022-11-09T10:09:36.700Z,100.00
2022-11-09T10:12:23.852Z,100.00
2022-11-09T10:15:15.929Z,100.00
2022-11-09T10:18:07.021Z,100.00
2022-11-09T10:20:55.891Z,100.00
2022-11-09T10:23:54.827Z,100.00
2022-11-09T10:26:36.215Z,100.00
2022-11-09T10:29:17.351Z,100.00
2022-11-09T10:31:46.612Z,100.00
2022-11-09T10:34:37.387Z,100.00
2022-11-09T10:37:03.748Z,100.00
2022-11-09T10:39:39.892Z,100.00
2022-11-09T10:42:24.780Z,100.00
2022-11-09T10:45:28.359Z,100.00
2022-11-09T10:48:14.419Z,100.00
2022-11-09T10:50:59.817Z,100.00
2022-11-09T10:53:45.032Z,100.00
2022-11-09T10:56:37.230Z,100.00
2022-11-09T10:59:35.507Z,100.00
2022-11-09T11:02:28.859Z,100.00
2022-11-09T11:05:16.773Z,100.00
2022-11-09T11:08:20.537Z,100.00
2022-11-09T11:11:32.690Z,100.00
2022-11-09T11:14:30.496Z,100.00
2022-11-09T11:17:26.579Z,100.00
2022-11-09T11:20:23.787Z,100.00
2022-11-09T11:23:09.014Z,100.00
2022-11-09T11:26:13.520Z,100.00
2022-11-09T11:29:02.087Z,100.00
2022-11-09T11:31:47.787Z,100.00
2022-11-09T11:34:58.367Z,100.00
2022-11-09T11:38:06.860Z,100.00
2022-11-09T11:41:03.231Z,100.00
2022-11-09T11:44:08.652Z,100.00
2022-11-09T11:47:18.900Z,100.00
2022-11-09T11:50:16.055Z,100.00
2022-11-09T11:53:23.096Z,100.00
2022-11-09T11:56:43.145Z,100.00
2022-11-09T11:59:52.269Z,100.00
2022-11-09T12:02:55.877Z,100.00
2022-11-09T12:05:50.064Z,100.00
2022-11-09T12:09:03.134Z,100.00
2022-11-09T12:12:41.985Z,100.00
2022-11-09T12:15:57.447Z,100.00
2022-11-09T12:18:56.271Z,100.00
2022-11-09T12:21:55.023Z,100.00
2022-11-09T12:25:16.296Z,100.00
2022-11-09T12:28:46.425Z,100.00
2022-11-09T12:31:48.944Z,100.00
2022-11-09T12:34:46.108Z,100.00
2022-11-09T12:37:39.667Z,100.00
2022-11-09T12:40:44.072Z,100.00
2022-11-09T12:43:34.762Z,100.00
2022-11-09T12:46:24.720Z,100.00
2022-11-09T12:49:33.629Z,100.00
2022-11-09T12:52:26.600Z,100.00
2022-11-09T12:55:17.068Z,100.00
2022-11-09T12:58:02.285Z,100.00
2022-11-09T13:00:49.361Z,100.00
2022-11-09T13:03:38.267Z,100.00
2022-11-09T13:06:26.507Z,100.00
2022-11-09T13:09:24.200Z,100.00
2022-11-09T13:12:27.831Z,100.00
2022-11-09T13:15:27.848Z,100.00
2022-11-09T13:18:35.204Z,100.00
2022-11-09T13:21:23.677Z,100.00
2022-11-09T13:24:30.353Z,100.00
2022-11-09T13:27:38.835Z,99.72
2022-11-09T13:30:23.886Z,99.80
2022-11-09T13:33:15.075Z,100.00
2022-11-09T13:36:03.014Z,100.00
2022-11-09T13:39:23.039Z,100.00
2022-11-09T13:42:27.568Z,100.00
2022-11-09T13:45:46.212Z,100.00
2022-11-09T13:48:47.551Z,100.00
2022-11-09T13:51:35.585Z,100.00
2022-11-09T13:54:34.932Z,100.00
2022-11-09T13:57:22.499Z,100.00
2022-11-09T14:00:18.803Z,100.00
2022-11-09T14:03:28.282Z,100.00
2022-11-09T14:06:13.578Z,100.00
2022-11-09T14:08:59.897Z,100.00
2022-11-09T14:11:50.997Z,100.00
2022-11-09T14:15:03.343Z,100.00
2022-11-09T14:18:13.591Z,100.00
2022-11-09T14:21:17.284Z,100.00
2022-11-09T14:24:24.224Z,100.00
2022-11-09T14:27:09.353Z,100.00
2022-11-09T14:29:57.179Z,100.00
2022-11-09T14:32:49.318Z,100.00
2022-11-09T14:35:36.374Z,100.00
2022-11-09T14:38:24.969Z,100.00
2022-11-09T14:41:25.560Z,100.00
2022-11-09T14:44:40.086Z,100.00
2022-11-09T14:47:32.618Z,100.00
2022-11-09T14:50:33.703Z,100.00
2022-11-09T14:53:25.615Z,100.00
2022-11-09T14:56:13.655Z,100.00
2022-11-09T14:58:59.759Z,100.00
2022-11-09T15:02:09.786Z,100.00
2022-11-09T15:05:01.281Z,100.00
2022-11-09T15:07:48.127Z,100.00
2022-11-09T15:10:34.030Z,100.00
2022-11-09T15:13:40.856Z,100.00
2022-11-09T15:16:29.278Z,100.00
2022-11-09T15:19:22.674Z,100.00
2022-11-09T15:22:46.069Z,100.00
2022-11-09T15:25:44.465Z,100.00
2022-11-09T15:28:30.906Z,100.00
2022-11-09T15:31:19.176Z,100.00
2022-11-09T15:34:22.143Z,100.00
2022-11-09T15:37:20.740Z,100.00
2022-11-09T15:40:10.198Z,100.00
2022-11-09T15:42:55.404Z,100.00
2022-11-09T15:45:40.387Z,100.00
2022-11-09T15:48:25.806Z,100.00
2022-11-09T15:51:12.514Z,100.00
2022-11-09T15:53:57.654Z,100.00
2022-11-09T15:56:42.660Z,100.00
2022-11-09T15:59:27.789Z,100.00
2022-11-09T16:02:13.742Z,100.00
2022-11-09T16:04:58.798Z,100.00
2022-11-09T16:07:53.941Z,100.00
2022-11-09T16:10:40.629Z,100.00
2022-11-09T16:13:25.718Z,100.00
2022-11-09T16:16:14.024Z,100.00
2022-11-09T16:18:59.390Z,100.00
2022-11-09T16:21:44.633Z,100.00
2022-11-09T16:24:30.002Z,100.00
2022-11-09T16:27:42.980Z,100.00
2022-11-09T16:30:21.190Z,100.00
2022-11-09T16:33:06.020Z,100.00
2022-11-09T16:35:51.053Z,100.00
2022-11-09T16:38:40.452Z,100.00
2022-11-09T16:41:25.872Z,100.00
2022-11-09T16:44:12.265Z,100.00
2022-11-09T16:46:57.555Z,100.00
2022-11-09T16:49:42.731Z,100.00
2022-11-09T16:52:27.920Z,100.00
2022-11-09T16:55:12.823Z,100.00
2022-11-09T16:57:57.743Z,100.00
2022-11-09T17:01:09.618Z,100.00
2022-11-09T17:03:53.165Z,100.00
2022-11-09T17:06:38.128Z,100.00
2022-11-09T17:09:23.066Z,100.00
2022-11-09T17:12:08.407Z,100.00
2022-11-09T17:14:53.515Z,100.00
2022-11-09T17:17:38.426Z,100.00
2022-11-09T17:20:23.948Z,100.00
2022-11-09T17:23:09.635Z,100.00
2022-11-09T17:26:00.235Z,100.00
2022-11-09T17:28:45.175Z,100.00
2022-11-09T17:31:31.001Z,100.00
2022-11-09T17:34:16.330Z,100.00
2022-11-09T17:37:04.584Z,100.00
2022-11-09T17:39:50.457Z,100.00
2022-11-09T17:42:35.449Z,100.00
2022-11-09T17:45:20.552Z,100.00
2022-11-09T17:48:05.573Z,100.00
2022-11-09T17:50:50.811Z,100.00
2022-11-09T17:53:36.270Z,100.00
2022-11-09T17:56:21.128Z,100.00
2022-11-09T17:59:06.199Z,100.00
2022-11-09T18:01:51.203Z,100.00
2022-11-09T18:04:37.391Z,100.00
2022-11-09T18:07:22.292Z,100.00
2022-11-09T18:10:08.041Z,100.00
2022-11-09T18:12:53.080Z,100.00
2022-11-09T18:15:39.019Z,100.00
2022-11-09T18:18:25.187Z,100.00
2022-11-09T18:21:16.524Z,100.00
2022-11-09T18:24:01.746Z,100.00
2022-11-09T18:26:46.951Z,100.00
2022-11-09T18:29:31.815Z,100.00
2022-11-09T18:32:16.750Z,100.00
2022-11-09T18:35:02.042Z,100.00
2022-11-09T18:37:48.426Z,100.00
2022-11-09T18:40:33.450Z,100.00
2022-11-09T18:43:18.506Z,100.00
2022-11-09T18:46:06.997Z,100.00
2022-11-09T18:48:54.062Z,100.00
2022-11-09T18:51:38.954Z,100.00
2022-11-09T18:54:23.915Z,100.00
2022-11-09T18:57:09.355Z,100.00
2022-11-09T18:59:54.154Z,100.00
2022-11-09T19:02:39.550Z,100.00
2022-11-09T19:05:24.780Z,100.00
2022-11-09T19:08:10.321Z,100.00
2022-11-09T19:10:55.204Z,100.00
2022-11-09T19:13:40.700Z,100.00
2022-11-09T19:16:26.676Z,100.00
2022-11-09T19:19:13.709Z,100.00
2022-11-09T19:21:58.779Z,100.00
2022-11-09T19:24:44.322Z,100.00
2022-11-09T19:27:30.303Z,100.00
2022-11-09T19:30:15.628Z,100.00
2022-11-09T19:33:00.557Z,100.00
2022-11-09T19:36:15.133Z,100.00
2022-11-09T19:38:56.843Z,100.00
2022-11-09T19:41:42.418Z,100.00
2022-11-09T19:44:27.336Z,100.00
2022-11-09T19:47:12.387Z,100.00
2022-11-09T19:49:57.396Z,100.00
2022-11-09T19:52:42.520Z,100.00
2022-11-09T19:55:28.707Z,100.00
2022-11-09T19:58:13.651Z,100.00
2022-11-09T20:01:06.977Z,100.00
2022-11-09T20:03:54.307Z,100.00
2022-11-09T20:06:40.173Z,100.00
2022-11-09T20:09:24.999Z,100.00
2022-11-09T20:12:30.017Z,100.00
2022-11-09T20:15:16.256Z,100.00
2022-11-09T20:18:01.340Z,100.00
2022-11-09T20:20:46.286Z,100.00
2022-11-09T20:23:30.974Z,100.00
2022-11-09T20:26:15.924Z,100.00
2022-11-09T20:29:01.132Z,100.00
2022-11-09T20:31:46.198Z,100.00
2022-11-09T20:34:31.157Z,100.00
2022-11-09T20:37:17.239Z,100.00
2022-11-09T20:40:03.503Z,100.00
2022-11-09T20:42:48.409Z,100.00
2022-11-09T20:45:35.849Z,100.00
2022-11-09T20:48:51.530Z,100.00
2022-11-09T20:51:26.550Z,100.00
2022-11-09T20:54:11.784Z,100.00
2022-11-09T20:56:57.155Z,100.00
2022-11-09T20:59:42.088Z,100.00
2022-11-09T21:02:26.975Z,100.00
2022-11-09T21:05:11.764Z,100.00
2022-11-09T21:07:56.786Z,100.00
2022-11-09T21:10:41.760Z,100.00
2022-11-09T21:13:26.961Z,100.00
2022-11-09T21:16:14.417Z,100.00
2022-11-09T21:18:59.593Z,100.00
2022-11-09T21:21:44.911Z,100.00
2022-11-09T21:24:48.908Z,100.00
2022-11-09T21:27:52.776Z,100.00
2022-11-09T21:30:37.869Z,100.00
2022-11-09T21:33:22.707Z,100.00
2022-11-09T21:36:09.864Z,100.00
2022-11-09T21:38:55.153Z,100.00
2022-11-09T21:41:40.375Z,100.00
2022-11-09T21:44:28.484Z,100.00
2022-11-09T21:47:13.866Z,100.00
2022-11-09T21:49:58.959Z,100.00
2022-11-09T21:52:43.905Z,100.00
2022-11-09T21:55:28.547Z,100.00
2022-11-09T21:58:13.435Z,100.00
2022-11-09T22:01:02.442Z,100.00
2022-11-09T22:03:47.915Z,100.00
2022-11-09T22:06:37.162Z,100.00
2022-11-09T22:09:22.361Z,100.00
2022-11-09T22:12:26.066Z,100.00
2022-11-09T22:15:30.353Z,100.00
2022-11-09T22:18:35.456Z,100.00
2022-11-09T22:21:22.728Z,100.00
2022-11-09T22:24:09.762Z,100.00
2022-11-09T22:26:55.095Z,100.00
2022-11-09T22:29:40.151Z,100.00
2022-11-09T22:32:25.119Z,100.00
2022-11-09T22:35:10.514Z,100.00
2022-11-09T22:38:01.190Z,100.00
2022-11-09T22:40:46.350Z,100.00
2022-11-09T22:43:40.244Z,100.00
2022-11-09T22:46:25.467Z,100.00
2022-11-09T22:49:10.667Z,100.00
2022-11-09T22:51:55.488Z,100.00
2022-11-09T22:54:40.397Z,100.00
2022-11-09T22:57:25.166Z,100.00
2022-11-09T23:00:13.649Z,100.00
2022-11-09T23:02:58.763Z,100.00
2022-11-09T23:05:44.216Z,100.00
2022-11-09T23:08:31.295Z,100.00
2022-11-09T23:11:20.608Z,100.00
2022-11-09T23:14:05.445Z,100.00
2022-11-09T23:16:50.389Z,100.00
2022-11-09T23:19:35.184Z,100.00
2022-11-09T23:22:20.201Z,100.00
2022-11-09T23:25:24.158Z,100.00
2022-11-09T23:28:12.173Z,100.00
2022-11-09T23:31:09.036Z,100.00
2022-11-09T23:33:56.109Z,100.00
2022-11-09T23:36:41.263Z,100.00
2022-11-09T23:39:26.186Z,100.00
2022-11-09T23:42:11.116Z,100.00
2022-11-09T23:44:56.060Z,100.00
2022-11-09T23:47:41.016Z,100.00
2022-11-09T23:50:26.270Z,100.00
2022-11-09T23:53:11.943Z,100.00
2022-11-09T23:56:08.840Z,100.00
2022-11-09T23:58:54.134Z,100.00
